Red Springs, North Carolina
Current Conditions -  °F | °C
As of 4:52 PM on Friday 24 Oct 2014 (Local Time) from KMEB Reporting Station
Clear Clear  
Wind Chill: 21°   Ceiling: Unl
Heat Index: 21°   Visibility: 10mi
Dew Point:   Wind: 5mph
Humidity: 44%   Direction: 270°W
Pressure: 29.97"   Gusts: NA
Location:  34.82°N, 79.18°W
Report Text: KMEB 242052Z AUTO 27004KT 10SM CLR 21/08 A2997 RMK AO2 SLP149 T02060078 56013
Loading
Personal Weather Stations






























Interactive Weather Map
Tropical Storm Tracking
New forecast layout! Learn more

10-Day Weather Forecast

Advertisements
Track Severe Weather on mobile